createdAt,value
2017-08-01T00:00:28.502Z,101293.47
2017-08-01T00:02:56.863Z,101284.54
2017-08-01T00:05:25.198Z,101283.24
2017-08-01T00:07:53.963Z,101282.41
2017-08-01T00:10:22.313Z,101288.07
2017-08-01T00:12:51.437Z,101278.66
2017-08-01T00:15:20.376Z,101269.92
2017-08-01T00:17:48.701Z,101266.54
2017-08-01T00:20:17.039Z,101265.33
2017-08-01T00:22:45.701Z,101262.73
2017-08-01T00:25:14.038Z,101262.44
2017-08-01T00:27:42.377Z,101251.89
2017-08-01T00:30:11.026Z,101259.67
2017-08-01T00:32:39.368Z,101256.57
2017-08-01T00:35:07.729Z,101251.53
2017-08-01T00:37:37.396Z,101249.38
2017-08-01T00:40:05.747Z,101249.22
2017-08-01T00:42:34.086Z,101239.50
2017-08-01T00:45:02.839Z,101241.31
2017-08-01T00:47:31.170Z,101235.09
2017-08-01T00:49:59.498Z,101235.41
2017-08-01T00:52:28.142Z,101241.53
2017-08-01T00:54:57.257Z,101241.42
2017-08-01T00:57:25.568Z,101231.91
2017-08-01T00:59:54.529Z,101235.16
2017-08-01T01:02:22.898Z,101233.43
2017-08-01T01:04:51.227Z,101236.75
2017-08-01T01:07:19.871Z,101246.42
2017-08-01T01:09:48.215Z,101255.80
2017-08-01T01:12:16.558Z,101253.80
2017-08-01T01:14:45.416Z,101253.92
2017-08-01T01:17:13.804Z,101257.59
2017-08-01T01:19:42.198Z,101253.48
2017-08-01T01:22:10.929Z,101258.95
2017-08-01T01:24:39.328Z,101262.31
2017-08-01T01:27:07.671Z,101238.09
2017-08-01T01:29:36.919Z,101225.47
2017-08-01T01:32:05.267Z,101218.61
2017-08-01T01:34:33.602Z,101218.27
2017-08-01T01:37:02.255Z,101224.14
2017-08-01T01:39:30.611Z,101220.04
2017-08-01T01:41:58.970Z,101234.77
2017-08-01T01:44:28.356Z,101249.09
2017-08-01T01:46:56.713Z,101240.20
2017-08-01T01:49:25.069Z,101232.01
2017-08-01T01:51:54.704Z,101234.65
2017-08-01T01:54:23.064Z,101244.81
2017-08-01T01:56:51.402Z,101241.95
2017-08-01T01:59:20.339Z,101224.27
2017-08-01T02:01:48.695Z,101213.20
2017-08-01T02:04:17.803Z,101212.70
2017-08-01T02:06:47.427Z,101203.67
2017-08-01T02:09:15.781Z,101178.41
2017-08-01T02:11:44.905Z,101183.59
2017-08-01T02:14:13.532Z,101184.12
2017-08-01T02:16:41.881Z,101186.55
2017-08-01T02:19:10.223Z,101180.98
2017-08-01T02:21:38.852Z,101178.11
2017-08-01T02:24:07.208Z,101182.20
2017-08-01T02:26:35.586Z,101185.33
2017-08-01T02:29:04.579Z,101198.52
2017-08-01T02:31:33.087Z,101202.83
2017-08-01T02:34:01.419Z,101189.34
2017-08-01T02:36:30.231Z,101185.39
2017-08-01T02:38:58.583Z,101189.45
2017-08-01T02:41:27.744Z,101200.86
2017-08-01T02:43:56.491Z,101204.02
2017-08-01T02:46:24.843Z,101211.14
2017-08-01T02:48:53.959Z,101214.42
2017-08-01T02:51:23.538Z,101214.94
2017-08-01T02:53:51.896Z,101215.19
2017-08-01T02:56:20.239Z,101227.94
2017-08-01T02:58:49.025Z,101228.16
2017-08-01T03:01:17.408Z,101226.91
2017-08-01T03:03:45.736Z,101223.02
2017-08-01T03:06:14.467Z,101241.66
2017-08-01T03:08:42.801Z,101247.77
2017-08-01T03:11:11.152Z,101257.63
2017-08-01T03:13:40.106Z,101254.21
2017-08-01T03:16:08.449Z,101250.39
2017-08-01T03:18:36.808Z,101250.90
2017-08-01T03:21:05.562Z,101254.09
2017-08-01T03:23:33.913Z,101256.66
2017-08-01T03:26:03.023Z,101256.42
2017-08-01T03:28:31.848Z,101259.47
2017-08-01T03:31:00.224Z,101266.30
2017-08-01T03:33:28.564Z,101265.60
2017-08-01T03:35:57.464Z,101268.41
2017-08-01T03:38:25.834Z,101266.73
2017-08-01T03:40:54.961Z,101263.75
2017-08-01T03:43:23.608Z,101264.16
2017-08-01T03:45:51.929Z,101275.47
2017-08-01T03:48:20.351Z,101277.86
2017-08-01T03:50:49.205Z,101289.64
2017-08-01T03:53:17.635Z,101290.69
2017-08-01T03:55:46.000Z,101287.53
2017-08-01T03:58:14.803Z,101287.98
2017-08-01T04:00:43.186Z,101283.30
2017-08-01T04:03:11.551Z,101278.30
2017-08-01T04:05:40.451Z,101275.04
2017-08-01T04:08:08.831Z,101271.89
2017-08-01T04:10:37.314Z,101270.27
2017-08-01T04:13:06.146Z,101268.20
2017-08-01T04:15:34.554Z,101275.59
2017-08-01T04:18:02.970Z,101281.30
2017-08-01T04:20:32.673Z,101274.34
2017-08-01T04:23:01.053Z,101271.23
2017-08-01T04:25:29.441Z,101262.77
2017-08-01T04:27:59.134Z,101256.55
2017-08-01T04:30:27.529Z,101261.27
2017-08-01T04:32:56.002Z,101263.98
2017-08-01T04:35:24.788Z,101262.45
2017-08-01T04:37:53.325Z,101262.88
2017-08-01T04:40:21.660Z,101258.88
2017-08-01T04:42:50.490Z,101258.34
2017-08-01T04:45:18.925Z,101249.41
2017-08-01T04:47:47.326Z,101253.30
2017-08-01T04:50:16.087Z,101227.81
2017-08-01T04:52:44.551Z,101233.71
2017-08-01T04:55:12.945Z,101230.98
2017-08-01T04:57:41.946Z,101221.47
2017-08-01T05:00:10.384Z,101217.84
2017-08-01T05:02:38.807Z,101224.51
2017-08-01T05:05:07.646Z,101223.55
2017-08-01T05:07:36.048Z,101225.51
2017-08-01T05:10:04.409Z,101217.79
2017-08-01T05:12:33.367Z,101211.67
2017-08-01T05:15:01.808Z,101210.30
2017-08-01T05:17:30.208Z,101215.55
2017-08-01T05:19:59.101Z,101221.24
2017-08-01T05:22:27.467Z,101223.55
2017-08-01T05:24:55.805Z,101214.84
2017-08-01T05:27:24.693Z,101228.49
2017-08-01T05:29:53.044Z,101226.13
2017-08-01T05:32:22.157Z,101229.47
2017-08-01T05:34:50.942Z,101215.42
2017-08-01T05:37:19.271Z,101219.85
2017-08-01T05:39:47.594Z,101219.83
2017-08-01T05:42:16.397Z,101220.11
2017-08-01T05:44:44.722Z,101215.63
2017-08-01T05:47:13.064Z,101220.67
2017-08-01T05:49:42.043Z,101224.11
2017-08-01T05:52:10.388Z,101225.86
2017-08-01T05:54:38.744Z,101231.95
2017-08-01T05:57:07.367Z,101228.36
2017-08-01T05:59:36.478Z,101224.05
2017-08-01T06:02:04.825Z,101219.22
2017-08-01T06:04:33.748Z,101214.96
2017-08-01T06:07:02.092Z,101202.96
2017-08-01T06:09:30.448Z,101194.55
2017-08-01T06:11:59.400Z,101189.71
2017-08-01T06:14:27.738Z,101204.04
2017-08-01T06:16:56.079Z,101209.89
2017-08-01T06:19:24.745Z,101208.30
2017-08-01T06:21:53.095Z,101204.96
2017-08-01T06:24:21.491Z,101193.77
2017-08-01T06:26:50.916Z,101203.67
2017-08-01T06:29:19.264Z,101200.19
2017-08-01T06:31:48.389Z,101194.42
2017-08-01T06:34:17.197Z,101189.48
2017-08-01T06:36:45.531Z,101188.70
2017-08-01T06:39:13.891Z,101202.61
2017-08-01T06:41:42.631Z,101212.89
2017-08-01T06:44:10.979Z,101225.66
2017-08-01T06:46:40.095Z,101233.27
2017-08-01T06:49:08.853Z,101237.70
2017-08-01T06:51:37.193Z,101234.81
2017-08-01T06:54:05.553Z,101241.98
2017-08-01T06:56:34.364Z,101243.95
2017-08-01T06:59:02.739Z,101242.94
2017-08-01T07:01:31.080Z,101241.00
2017-08-01T07:03:59.966Z,101238.55
2017-08-01T07:06:28.320Z,101236.13
2017-08-01T07:08:56.691Z,101227.69
2017-08-01T07:11:25.520Z,101216.65
2017-08-01T07:13:54.632Z,101194.45
2017-08-01T07:16:22.989Z,101188.66
2017-08-01T07:18:52.106Z,101188.97
2017-08-01T07:21:20.429Z,101188.21
2017-08-01T07:23:48.789Z,101187.95
2017-08-01T07:26:17.390Z,101180.86
2017-08-01T07:28:45.727Z,101185.80
2017-08-01T07:31:14.074Z,101183.80
2017-08-01T07:33:42.722Z,101178.66
2017-08-01T07:36:11.052Z,101168.53
2017-08-01T07:38:39.432Z,101161.35
2017-08-01T07:41:08.442Z,101162.71
2017-08-01T07:43:36.806Z,101156.99
2017-08-01T07:46:05.143Z,101166.32
2017-08-01T07:48:33.899Z,101162.31
2017-08-01T07:51:02.262Z,101170.81
2017-08-01T07:53:30.608Z,101166.31
2017-08-01T07:55:59.530Z,101169.65
2017-08-01T07:58:27.858Z,101162.23
2017-08-01T08:00:56.178Z,101164.38
2017-08-01T08:03:24.967Z,101173.64
2017-08-01T08:05:53.297Z,101180.31
2017-08-01T08:08:21.620Z,101185.81
2017-08-01T08:10:50.424Z,101205.77
2017-08-01T08:13:18.773Z,101204.69
2017-08-01T08:15:47.890Z,101212.53
2017-08-01T08:18:16.673Z,101221.02
2017-08-01T08:20:45.025Z,101222.67
2017-08-01T08:23:13.379Z,101242.38
2017-08-01T08:25:42.151Z,101239.92
2017-08-01T08:28:10.511Z,101237.58
2017-08-01T08:30:38.860Z,101243.03
2017-08-01T08:33:07.826Z,101244.84
2017-08-01T08:35:36.164Z,101247.95
2017-08-01T08:38:04.500Z,101254.45
2017-08-01T08:40:33.105Z,101250.78
2017-08-01T08:43:02.236Z,101252.76
2017-08-01T08:45:30.596Z,101245.56
2017-08-01T08:47:59.717Z,101226.16
2017-08-01T08:50:28.103Z,101222.10
2017-08-01T08:52:56.499Z,101230.17
2017-08-01T08:55:25.342Z,101217.78
2017-08-01T08:57:53.690Z,101219.84
2017-08-01T09:00:22.026Z,101222.52
2017-08-01T09:02:50.639Z,101214.11
2017-08-01T09:05:19.008Z,101209.23
2017-08-01T09:07:47.358Z,101210.62
2017-08-01T09:10:16.448Z,101217.35
2017-08-01T09:12:44.779Z,101219.13
2017-08-01T09:15:13.106Z,101218.30
2017-08-01T09:17:41.756Z,101215.52
2017-08-01T09:20:10.105Z,101213.97
2017-08-01T09:22:38.437Z,101213.30
2017-08-01T09:25:07.111Z,101219.98
2017-08-01T09:27:35.460Z,101208.14
2017-08-01T09:30:03.797Z,101217.32
2017-08-01T09:32:32.824Z,101225.88
2017-08-01T09:35:01.472Z,101229.99
2017-08-01T09:37:29.942Z,101240.91
2017-08-01T09:39:59.475Z,101237.19
2017-08-01T09:42:27.820Z,101233.20
2017-08-01T09:44:56.208Z,101225.53
2017-08-01T09:47:24.846Z,101218.56
2017-08-01T09:49:53.176Z,101216.77
2017-08-01T09:52:21.502Z,101208.05
2017-08-01T09:54:50.566Z,101205.83
2017-08-01T09:57:18.973Z,101206.41
2017-08-01T09:59:47.334Z,101206.39
2017-08-01T10:02:15.930Z,101197.61
2017-08-01T10:04:44.252Z,101187.86
2017-08-01T10:07:12.597Z,101195.54
2017-08-01T10:09:41.467Z,101197.23
2017-08-01T10:12:09.809Z,101193.72
2017-08-01T10:14:38.143Z,101200.84
2017-08-01T10:17:06.997Z,101203.25
2017-08-01T10:19:35.343Z,101197.44
2017-08-01T10:22:03.691Z,101191.30
2017-08-01T10:24:32.331Z,101188.86
2017-08-01T10:27:01.564Z,101195.63
2017-08-01T10:29:29.889Z,101198.65
2017-08-01T10:31:58.778Z,101185.90
2017-08-01T10:34:27.122Z,101194.14
2017-08-01T10:36:55.840Z,101196.42
2017-08-01T10:39:24.855Z,101206.98
2017-08-01T10:41:53.208Z,101220.16
2017-08-01T10:44:21.565Z,101216.56
2017-08-01T10:46:50.235Z,101220.17
2017-08-01T10:49:18.583Z,101214.83
2017-08-01T10:51:46.934Z,101217.50
2017-08-01T10:54:15.598Z,101226.34
2017-08-01T10:56:43.925Z,101219.11
2017-08-01T10:59:12.319Z,101216.41
2017-08-01T11:01:41.160Z,101215.55
2017-08-01T11:04:09.511Z,101213.08
2017-08-01T11:06:37.938Z,101221.80
2017-08-01T11:09:06.599Z,101232.77
2017-08-01T11:11:34.969Z,101234.66
2017-08-01T11:14:03.361Z,101239.63
2017-08-01T11:16:32.238Z,101243.84
2017-08-01T11:19:00.612Z,101238.35
2017-08-01T11:21:29.047Z,101237.53
2017-08-01T11:23:58.040Z,101232.59
2017-08-01T11:26:26.394Z,101224.06
2017-08-01T11:28:54.750Z,101222.95
2017-08-01T11:31:23.606Z,101208.44
2017-08-01T11:33:51.959Z,101198.59
2017-08-01T11:36:20.289Z,101195.47
2017-08-01T11:38:48.998Z,101188.59
2017-08-01T11:41:17.396Z,101184.16
2017-08-01T11:43:45.744Z,101177.30
2017-08-01T11:46:14.767Z,101169.58
2017-08-01T11:48:43.172Z,101173.08
2017-08-01T11:51:11.608Z,101166.67
2017-08-01T11:53:40.608Z,101150.76
2017-08-01T11:56:09.796Z,101129.59
2017-08-01T11:58:38.216Z,101120.35
2017-08-01T12:01:07.243Z,101126.73
2017-08-01T12:03:35.621Z,101138.02
2017-08-01T12:06:04.114Z,101143.00
2017-08-01T12:08:33.067Z,101146.91
2017-08-01T12:11:01.457Z,101166.84
2017-08-01T12:13:29.802Z,101161.53
2017-08-01T12:15:58.478Z,101155.53
2017-08-01T12:18:26.825Z,101168.70
2017-08-01T12:20:55.226Z,101155.95
2017-08-01T12:23:24.023Z,101135.02
2017-08-01T12:25:52.422Z,101126.96
2017-08-01T12:28:20.782Z,101154.73
2017-08-01T12:30:50.382Z,101161.62
2017-08-01T12:33:18.759Z,101181.11
2017-08-01T12:35:47.132Z,101195.21
2017-08-01T12:38:15.749Z,101198.42
2017-08-01T12:40:44.886Z,101186.50
2017-08-01T12:43:13.267Z,101190.72
2017-08-01T12:45:41.987Z,101179.03
2017-08-01T12:48:10.331Z,101181.95
2017-08-01T12:50:38.674Z,101178.11
2017-08-01T12:53:07.487Z,101183.20
2017-08-01T12:55:35.830Z,101175.43
2017-08-01T12:58:04.173Z,101182.05
2017-08-01T13:00:32.821Z,101180.18
2017-08-01T13:03:01.165Z,101177.80
2017-08-01T13:05:29.535Z,101176.05
2017-08-01T13:07:58.264Z,101170.22
2017-08-01T13:10:26.602Z,101170.27
2017-08-01T13:12:54.925Z,101177.56
2017-08-01T13:15:24.122Z,101182.81
2017-08-01T13:17:52.462Z,101178.05
2017-08-01T13:20:20.831Z,101184.48
2017-08-01T13:22:49.580Z,101180.34
2017-08-01T13:25:17.946Z,101189.98
2017-08-01T13:27:46.288Z,101196.02
2017-08-01T13:30:15.145Z,101188.83
2017-08-01T13:32:43.492Z,101194.52
2017-08-01T13:35:11.842Z,101201.66
2017-08-01T13:37:40.618Z,101196.91
2017-08-01T13:40:08.973Z,101202.27
2017-08-01T13:42:37.336Z,101203.92
2017-08-01T13:45:06.142Z,101206.00
2017-08-01T13:47:34.501Z,101201.12
2017-08-01T13:50:02.837Z,101202.94
2017-08-01T13:52:31.747Z,101194.41
2017-08-01T13:55:00.095Z,101204.39
2017-08-01T13:57:28.448Z,101197.41
2017-08-01T13:59:57.658Z,101190.84
2017-08-01T14:02:26.015Z,101185.14
2017-08-01T14:04:54.353Z,101195.84
2017-08-01T14:07:23.255Z,101195.33
2017-08-01T14:09:51.592Z,101195.22
2017-08-01T14:12:19.938Z,101193.59
2017-08-01T14:14:48.704Z,101191.03
2017-08-01T14:17:17.051Z,101182.48
2017-08-01T14:19:45.410Z,101184.09
2017-08-01T14:22:14.342Z,101179.80
2017-08-01T14:24:42.685Z,101171.38
2017-08-01T14:27:11.029Z,101153.09
2017-08-01T14:29:39.687Z,101148.78
2017-08-01T14:32:08.039Z,101162.17
2017-08-01T14:34:36.395Z,101159.61
2017-08-01T14:37:05.071Z,101152.22
2017-08-01T14:39:33.443Z,101154.67
2017-08-01T14:42:01.822Z,101155.54
2017-08-01T14:44:30.554Z,101158.71
2017-08-01T14:46:58.902Z,101170.38
2017-08-01T14:49:27.289Z,101171.31
2017-08-01T14:51:55.930Z,101179.05
2017-08-01T14:54:24.315Z,101181.59
2017-08-01T14:56:52.651Z,101197.38
2017-08-01T14:59:21.370Z,101192.43
2017-08-01T15:01:49.714Z,101189.20
2017-08-01T15:04:18.073Z,101191.38
2017-08-01T15:06:46.954Z,101193.48
2017-08-01T15:09:15.300Z,101191.16
2017-08-01T15:11:43.707Z,101189.64
2017-08-01T15:14:12.470Z,101203.74
2017-08-01T15:16:40.805Z,101222.88
2017-08-01T15:19:09.149Z,101220.87
2017-08-01T15:21:37.919Z,101230.11
2017-08-01T15:24:06.304Z,101231.70
2017-08-01T15:26:34.662Z,101241.81
2017-08-01T15:29:03.394Z,101249.93
2017-08-01T15:31:31.735Z,101234.17
2017-08-01T15:34:00.194Z,101218.28
2017-08-01T15:36:28.885Z,101196.86
2017-08-01T15:38:58.010Z,101209.66
2017-08-01T15:41:26.377Z,101220.16
2017-08-01T15:43:55.064Z,101223.31
2017-08-01T15:46:23.402Z,101226.77
2017-08-01T15:48:51.763Z,101229.56
2017-08-01T15:51:20.703Z,101222.33
2017-08-01T15:53:49.049Z,101230.75
2017-08-01T15:56:23.295Z,101222.38
2017-08-01T15:58:51.709Z,101218.30
2017-08-01T16:01:20.073Z,101216.95
2017-08-01T16:03:48.918Z,101220.83
2017-08-01T16:06:17.274Z,101218.69
2017-08-01T16:08:45.645Z,101226.21
2017-08-01T16:11:14.558Z,101229.22
2017-08-01T16:13:42.929Z,101233.48
2017-08-01T16:16:11.277Z,101231.89
2017-08-01T16:18:40.304Z,101226.08
2017-08-01T16:21:08.667Z,101227.78
2017-08-01T16:23:37.012Z,101224.24
2017-08-01T16:26:06.677Z,101221.53
2017-08-01T16:28:35.006Z,101219.45
2017-08-01T16:31:03.322Z,101215.23
2017-08-01T16:33:32.116Z,101202.09
2017-08-01T16:36:00.488Z,101201.96
2017-08-01T16:38:28.858Z,101216.37
2017-08-01T16:40:57.597Z,101219.30
2017-08-01T16:43:26.705Z,101219.45
2017-08-01T16:45:55.822Z,101224.89
2017-08-01T16:48:24.588Z,101215.80
2017-08-01T16:50:52.935Z,101219.55
2017-08-01T16:53:21.283Z,101219.39
2017-08-01T16:55:50.262Z,101229.98
2017-08-01T16:58:18.597Z,101227.02
2017-08-01T17:00:46.958Z,101222.23
2017-08-01T17:03:15.702Z,101223.61
2017-08-01T17:05:44.061Z,101216.25
2017-08-01T17:08:13.174Z,101216.78
2017-08-01T17:10:41.970Z,101218.20
2017-08-01T17:13:10.305Z,101215.88
2017-08-01T17:15:38.664Z,101218.36
2017-08-01T17:18:07.476Z,101226.58
2017-08-01T17:20:35.815Z,101231.89
2017-08-01T17:23:04.171Z,101228.82
2017-08-01T17:25:32.808Z,101226.51
2017-08-01T17:28:01.167Z,101235.92
2017-08-01T17:30:29.502Z,101238.75
2017-08-01T17:32:58.949Z,101233.73
2017-08-01T17:35:27.294Z,101233.87
2017-08-01T17:37:55.655Z,101222.31
2017-08-01T17:40:24.466Z,101224.42
2017-08-01T17:42:52.819Z,101233.75
2017-08-01T17:45:21.200Z,101229.25
2017-08-01T17:49:09.904Z,101238.61
2017-08-01T17:51:38.282Z,101239.05
2017-08-01T17:54:06.640Z,101243.75
2017-08-01T17:56:35.485Z,101257.34
2017-08-01T17:59:03.834Z,101250.02
2017-08-01T18:01:32.213Z,101246.08
2017-08-01T18:04:01.001Z,101248.47
2017-08-01T18:06:29.359Z,101238.30
2017-08-01T18:08:57.713Z,101241.95
2017-08-01T18:11:26.413Z,101245.45
2017-08-01T18:13:54.779Z,101234.46
2017-08-01T18:16:23.143Z,101235.97
2017-08-01T18:18:51.876Z,101247.68
2017-08-01T18:21:20.285Z,101252.11
2017-08-01T18:23:49.831Z,101248.52
2017-08-01T18:26:18.581Z,101236.13
2017-08-01T18:28:46.987Z,101241.35
2017-08-01T18:31:15.356Z,101249.80
2017-08-01T18:33:44.021Z,101249.83
2017-08-01T18:36:12.383Z,101245.58
2017-08-01T18:38:40.731Z,101243.86
2017-08-01T18:41:09.618Z,101245.17
2017-08-01T18:43:37.989Z,101246.73
2017-08-01T18:46:06.367Z,101245.23
2017-08-01T18:48:35.355Z,101243.30
2017-08-01T18:51:04.623Z,101245.56
2017-08-01T18:53:33.089Z,101251.02
2017-08-01T18:56:01.834Z,101248.34
2017-08-01T18:58:31.055Z,101261.62
2017-08-01T19:00:59.417Z,101258.52
2017-08-01T19:03:28.393Z,101261.24
2017-08-01T19:05:56.810Z,101267.63
2017-08-01T19:08:25.154Z,101264.77
2017-08-01T19:10:53.893Z,101271.07
2017-08-01T19:13:22.248Z,101269.86
2017-08-01T19:15:50.640Z,101258.13
2017-08-01T19:18:19.541Z,101261.45
2017-08-01T19:20:47.909Z,101252.73
2017-08-01T19:23:16.268Z,101267.23
2017-08-01T19:25:45.235Z,101272.60
2017-08-01T19:30:48.534Z,101276.34
2017-08-01T19:33:16.916Z,101287.24
2017-08-01T19:35:45.282Z,101287.24
2017-08-01T19:38:13.970Z,101296.15
2017-08-01T19:40:42.366Z,101306.13
2017-08-01T19:43:10.721Z,101299.09
2017-08-01T19:45:39.410Z,101304.20
2017-08-01T19:48:07.745Z,101304.02
2017-08-01T19:50:36.098Z,101303.66
2017-08-01T19:53:04.793Z,101303.36
2017-08-01T19:55:33.177Z,101299.88
2017-08-01T19:58:02.292Z,101302.14
2017-08-01T20:00:30.980Z,101304.02
2017-08-01T20:02:59.320Z,101305.64
2017-08-01T20:05:27.688Z,101295.78
2017-08-01T20:07:56.761Z,101286.14
2017-08-01T20:10:25.245Z,101280.02
2017-08-01T20:12:53.592Z,101300.40
2017-08-01T20:15:22.400Z,101298.48
2017-08-01T20:17:51.657Z,101313.28
2017-08-01T20:20:20.014Z,101323.50
2017-08-01T20:22:48.882Z,101328.73
2017-08-01T20:25:17.213Z,101335.37
2017-08-01T20:27:45.562Z,101333.23
2017-08-01T20:30:15.131Z,101325.57
2017-08-01T20:32:43.486Z,101327.09
2017-08-01T20:35:11.846Z,101334.67
2017-08-01T20:37:40.618Z,101339.53
2017-08-01T20:40:09.002Z,101355.20
2017-08-01T20:42:37.356Z,101355.09
2017-08-01T20:45:06.021Z,101366.37
2017-08-01T20:47:34.395Z,101364.66
2017-08-01T20:50:02.785Z,101364.22
2017-08-01T20:52:31.609Z,101368.14
2017-08-01T20:54:59.972Z,101374.56
2017-08-01T20:57:28.324Z,101383.67
2017-08-01T20:59:57.098Z,101377.42
2017-08-01T21:02:25.447Z,101376.12
2017-08-01T21:04:53.852Z,101373.89
2017-08-01T21:07:22.540Z,101360.58
2017-08-01T21:09:50.901Z,101361.37
2017-08-01T21:12:19.271Z,101375.81
2017-08-01T21:14:47.971Z,101376.92
2017-08-01T21:17:16.351Z,101381.53
2017-08-01T21:19:45.458Z,101390.20
2017-08-01T21:22:14.946Z,101396.19
2017-08-01T21:24:43.296Z,101405.42
2017-08-01T21:27:11.660Z,101404.41
2017-08-01T21:29:40.535Z,101409.19
2017-08-01T21:32:08.902Z,101406.80
2017-08-01T21:34:37.250Z,101397.67
2017-08-01T21:37:06.386Z,101394.67
2017-08-01T21:39:34.754Z,101394.15
2017-08-01T21:42:03.867Z,101401.63
2017-08-01T21:44:32.652Z,101401.87
2017-08-01T21:47:00.990Z,101406.67
2017-08-01T21:49:29.344Z,101407.78
2017-08-01T21:51:58.108Z,101397.69
2017-08-01T21:54:26.443Z,101402.32
2017-08-01T21:56:55.575Z,101399.47
2017-08-01T21:59:24.253Z,101401.53
2017-08-01T22:01:52.618Z,101409.57
2017-08-01T22:04:20.987Z,101415.75
2017-08-01T22:06:49.684Z,101409.87
2017-08-01T22:09:18.033Z,101415.52
2017-08-01T22:11:46.390Z,101410.30
2017-08-01T22:14:15.008Z,101407.80
2017-08-01T22:16:43.370Z,101407.31
2017-08-01T22:19:11.701Z,101405.66
2017-08-01T22:21:40.374Z,101403.82
2017-08-01T22:24:09.482Z,101408.61
2017-08-01T22:26:37.826Z,101420.59
2017-08-01T22:29:06.496Z,101424.59
2017-08-01T22:31:34.868Z,101424.20
2017-08-01T22:34:03.227Z,101427.44
2017-08-01T22:36:32.218Z,101426.53
2017-08-01T22:39:00.569Z,101423.88
2017-08-01T22:41:29.696Z,101429.49
2017-08-01T22:43:58.510Z,101428.50
2017-08-01T22:46:26.860Z,101432.64
2017-08-01T22:48:55.238Z,101429.31
2017-08-01T22:51:24.124Z,101433.73
2017-08-01T22:53:52.471Z,101428.81
2017-08-01T22:56:21.568Z,101433.42
2017-08-01T22:58:51.199Z,101433.89
2017-08-01T23:01:19.574Z,101437.84
2017-08-01T23:03:47.926Z,101432.13
2017-08-01T23:06:16.849Z,101430.69
2017-08-01T23:08:45.192Z,101435.50
2017-08-01T23:11:13.530Z,101427.64
2017-08-01T23:13:42.262Z,101420.23
2017-08-01T23:16:10.605Z,101426.17
2017-08-01T23:18:38.969Z,101422.97
2017-08-01T23:21:07.738Z,101427.46
2017-08-01T23:23:36.087Z,101426.80
2017-08-01T23:26:04.438Z,101431.16
2017-08-01T23:28:33.164Z,101429.95
2017-08-01T23:31:01.548Z,101422.50
2017-08-01T23:33:29.892Z,101422.22
2017-08-01T23:35:58.616Z,101428.45
2017-08-01T23:38:26.969Z,101435.11
2017-08-01T23:40:55.328Z,101436.11
2017-08-01T23:43:24.278Z,101444.12
2017-08-01T23:45:52.621Z,101446.20
2017-08-01T23:48:20.966Z,101457.14
2017-08-01T23:50:49.919Z,101456.77
2017-08-01T23:53:18.278Z,101459.95
2017-08-01T23:55:46.662Z,101461.35
2017-08-01T23:58:15.295Z,101465.38
